Time;durP1;ratioP1;P1;durP2;ratioP2;P2;SDS_P1;SDS_P2;PMS_P1;PMS_P2;Temp;Humidity;BMP_temperature;BMP_pressure;BME280_temperature;BME280_humidity;BME280_pressure;Samples;Min_cycle;Max_cycle;Signal;HPM_P1;HPM_P2
2023/05/17 00:00:47;;;;;;;20.67;17.90;;;18.70;99.90;;;;;;5079212;28;20202;-85
2023/05/17 00:03:13;;;;;;;25.23;19.03;;;18.70;99.90;;;;;;5079328;28;20178;-82
2023/05/17 00:05:39;;;;;;;23.53;19.30;;;18.70;99.90;;;;;;5097773;28;20223;-84
2023/05/17 00:08:05;;;;;;;26.73;18.87;;;18.80;99.90;;;;;;5097343;28;20180;-84
2023/05/17 00:10:30;;;;;;;25.57;19.13;;;18.80;99.90;;;;;;5097794;28;20439;-85
2023/05/17 00:12:56;;;;;;;22.83;19.80;;;18.80;99.90;;;;;;5097134;28;20600;-83
2023/05/17 00:15:22;;;;;;;25.60;19.97;;;18.80;99.90;;;;;;5097176;28;20230;-85
2023/05/17 00:17:47;;;;;;;22.17;19.07;;;18.90;99.90;;;;;;5078833;28;20210;-83
2023/05/17 00:20:13;;;;;;;23.43;19.73;;;18.90;99.90;;;;;;5079020;28;20680;-85
2023/05/17 00:22:39;;;;;;;22.27;19.90;;;18.90;99.90;;;;;;5079226;28;20213;-84
2023/05/17 00:25:06;;;;;;;25.80;20.90;;;18.80;99.90;;;;;;5097445;28;20795;-84
2023/05/17 00:27:32;;;;;;;21.57;19.23;;;18.80;99.90;;;;;;5097001;28;20764;-85
2023/05/17 00:29:58;;;;;;;25.50;20.87;;;18.80;99.90;;;;;;5097122;28;20433;-85
2023/05/17 00:32:23;;;;;;;28.23;22.00;;;18.80;99.90;;;;;;5096963;28;20175;-83
2023/05/17 00:34:49;;;;;;;23.23;20.73;;;18.80;99.90;;;;;;5097131;28;20178;-83
2023/05/17 00:37:14;;;;;;;22.37;20.17;;;18.80;99.90;;;;;;5096711;28;20210;-83
2023/05/17 00:39:40;;;;;;;25.30;21.43;;;18.90;99.90;;;;;;5078502;28;20693;-85
2023/05/17 00:42:06;;;;;;;23.37;20.63;;;18.90;99.90;;;;;;5078583;28;20647;-83
2023/05/17 00:44:32;;;;;;;25.53;19.53;;;18.90;99.90;;;;;;5078650;28;20181;-85
2023/05/17 00:46:58;;;;;;;26.07;21.73;;;18.90;99.90;;;;;;5096610;28;20426;-83
2023/05/17 00:49:25;;;;;;;22.40;20.00;;;18.90;99.90;;;;;;5096826;28;20182;-83
2023/05/17 00:51:52;;;;;;;25.27;20.50;;;18.90;99.90;;;;;;5078287;28;20494;-84
2023/05/17 00:54:18;;;;;;;26.63;21.70;;;18.80;99.90;;;;;;5078473;28;20423;-83
2023/05/17 00:56:43;;;;;;;24.83;22.00;;;18.90;99.90;;;;;;5096459;28;20468;-84
2023/05/17 00:59:12;;;;;;;31.03;21.40;;;18.90;99.90;;;;;;5078382;28;20961;-83
2023/05/17 01:01:41;;;;;;;23.63;20.83;;;18.90;99.90;;;;;;5077339;28;20800;-84
2023/05/17 01:04:08;;;;;;;24.57;20.40;;;18.90;99.90;;;;;;5096446;28;20418;-84
2023/05/17 01:06:35;;;;;;;25.47;22.73;;;18.60;99.90;;;;;;5077983;28;20431;-85
2023/05/17 01:09:01;;;;;;;27.57;22.33;;;18.60;99.90;;;;;;5096275;28;20833;-85
2023/05/17 01:11:32;;;;;;;24.73;21.73;;;18.60;99.90;;;;;;5077956;28;20447;-84
2023/05/17 01:14:15;;;;;;;31.03;23.27;;;18.50;99.90;;;;;;5077930;28;20432;-83
2023/05/17 01:16:53;;;;;;;26.10;23.13;;;18.50;99.90;;;;;;5096078;28;20979;-85
2023/05/17 01:19:25;;;;;;;25.80;22.87;;;18.50;99.90;;;;;;5078003;28;20513;-85
2023/05/17 01:21:53;;;;;;;27.00;23.23;;;18.50;99.90;;;;;;5077766;28;20449;-83
2023/05/17 01:24:32;;;;;;;25.93;22.97;;;18.50;99.90;;;;;;5096384;28;20432;-84
2023/05/17 01:26:59;;;;;;;26.23;23.50;;;18.50;99.90;;;;;;5077651;28;20939;-85
2023/05/17 01:29:28;;;;;;;26.93;21.73;;;18.40;99.90;;;;;;5077923;28;20414;-85
2023/05/17 01:31:56;;;;;;;29.00;23.40;;;18.40;99.90;;;;;;5078012;28;20529;-83
2023/05/17 01:34:26;;;;;;;25.00;22.30;;;18.40;99.90;;;;;;5077810;28;20768;-83
2023/05/17 01:36:52;;;;;;;27.93;24.50;;;18.30;99.90;;;;;;5077369;28;20469;-83
2023/05/17 01:39:17;;;;;;;30.20;23.00;;;18.30;99.90;;;;;;5095814;28;20957;-83
2023/05/17 01:41:50;;;;;;;26.40;23.43;;;18.30;99.90;;;;;;5077480;28;20678;-83
2023/05/17 01:44:33;;;;;;;26.93;24.00;;;18.30;99.90;;;;;;5095561;28;20626;-83
2023/05/17 01:47:32;;;;;;;26.53;23.13;;;18.20;99.90;;;;;;5095523;28;20902;-83
2023/05/17 01:49:59;;;;;;;27.40;23.00;;;18.20;99.90;;;;;;5095705;28;20436;-85
2023/05/17 01:52:44;;;;;;;27.53;24.17;;;18.10;99.90;;;;;;5095423;28;20402;-84
2023/05/17 01:55:35;;;;;;;27.60;24.67;;;18.10;99.90;;;;;;5077429;28;20448;-83
2023/05/17 01:58:05;;;;;;;29.07;23.80;;;18.10;99.90;;;;;;5076972;28;20520;-85
2023/05/17 02:00:31;;;;;;;28.30;24.40;;;18.00;99.90;;;;;;5095723;28;20429;-84
2023/05/17 02:02:57;;;;;;;27.53;23.50;;;18.10;99.90;;;;;;5095160;28;20488;-83
2023/05/17 02:05:22;;;;;;;30.57;23.93;;;18.10;99.90;;;;;;5077061;28;20986;-83
2023/05/17 02:07:48;;;;;;;25.63;22.30;;;18.00;99.90;;;;;;5095104;28;20185;-83
2023/05/17 02:10:14;;;;;;;25.60;22.90;;;18.00;99.90;;;;;;5095383;28;20190;-84
2023/05/17 02:12:39;;;;;;;25.73;23.00;;;17.90;99.90;;;;;;5076774;28;20189;-83
2023/05/17 02:15:07;;;;;;;27.47;23.40;;;17.80;99.90;;;;;;5076703;28;20269;-84
2023/05/17 02:17:32;;;;;;;27.43;24.30;;;17.80;99.90;;;;;;5094747;28;20296;-83
2023/05/17 02:19:58;;;;;;;29.97;25.63;;;17.80;99.90;;;;;;5095066;28;20465;-85
2023/05/17 02:22:23;;;;;;;27.97;22.73;;;17.80;99.90;;;;;;5076663;28;20193;-83
2023/05/17 02:24:49;;;;;;;26.57;23.70;;;17.70;99.90;;;;;;5095022;28;20181;-85
2023/05/17 02:27:15;;;;;;;30.93;26.17;;;17.70;99.90;;;;;;5076551;28;20208;-84
2023/05/17 02:29:41;;;;;;;30.03;26.03;;;17.60;99.90;;;;;;5094735;28;20293;-85
2023/05/17 02:32:07;;;;;;;29.53;24.97;;;17.40;99.90;;;;;;5076461;28;20643;-85
2023/05/17 02:34:33;;;;;;;29.03;25.87;;;17.40;99.90;;;;;;5076360;28;20449;-85
2023/05/17 02:36:58;;;;;;;35.43;24.97;;;17.50;99.90;;;;;;5076289;28;20208;-84
2023/05/17 02:39:24;;;;;;;36.40;27.50;;;17.40;99.90;;;;;;5076406;28;20838;-83
2023/05/17 02:41:50;;;;;;;33.73;27.10;;;17.30;99.90;;;;;;5094423;28;20253;-83
2023/05/17 02:44:15;;;;;;;31.90;26.70;;;17.40;99.90;;;;;;5095060;28;20597;-85
2023/05/17 02:46:41;;;;;;;33.60;26.83;;;17.50;99.90;;;;;;5076139;28;20673;-84
2023/05/17 02:49:06;;;;;;;31.03;27.07;;;17.50;99.90;;;;;;5094303;28;20176;-84
2023/05/17 02:51:32;;;;;;;34.07;26.70;;;17.50;99.90;;;;;;5094202;28;20293;-83
2023/05/17 02:53:58;;;;;;;34.53;27.27;;;17.50;99.90;;;;;;5076092;28;20177;-85
2023/05/17 02:56:23;;;;;;;33.87;27.00;;;17.60;99.90;;;;;;5076057;28;20695;-84
2023/05/17 02:58:49;;;;;;;32.47;27.40;;;17.50;99.90;;;;;;5075947;28;20267;-83
2023/05/17 03:01:15;;;;;;;34.20;28.80;;;17.50;99.90;;;;;;5094186;28;20201;-82
2023/05/17 03:03:40;;;;;;;36.40;27.27;;;17.60;99.90;;;;;;5075999;28;20184;-82
2023/05/17 03:06:06;;;;;;;34.57;30.03;;;17.60;99.90;;;;;;5094060;28;20227;-85
2023/05/17 03:08:32;;;;;;;33.33;28.60;;;17.60;99.90;;;;;;5094010;28;20309;-84
2023/05/17 03:10:57;;;;;;;31.43;27.50;;;17.70;99.90;;;;;;5075801;28;20535;-85
2023/05/17 03:13:23;;;;;;;33.17;28.17;;;17.70;99.90;;;;;;5093942;28;20187;-84
2023/05/17 03:15:49;;;;;;;38.03;29.23;;;17.80;99.90;;;;;;5072311;28;20248;-84
2023/05/17 03:18:15;;;;;;;32.87;28.57;;;17.80;99.90;;;;;;5073682;28;20200;-85
2023/05/17 03:20:40;;;;;;;29.87;25.70;;;17.90;99.90;;;;;;5074060;28;20811;-83
2023/05/17 03:23:06;;;;;;;34.90;27.40;;;17.80;99.90;;;;;;5073448;28;20406;-85
2023/05/17 03:25:32;;;;;;;40.40;29.60;;;17.90;99.90;;;;;;5073929;28;20193;-84
2023/05/17 03:27:57;;;;;;;32.80;26.03;;;17.90;99.90;;;;;;5073608;28;20177;-84
2023/05/17 03:30:23;;;;;;;36.00;28.10;;;17.90;99.90;;;;;;5072467;28;20205;-84
2023/05/17 03:32:49;;;;;;;36.00;28.30;;;17.90;99.90;;;;;;5073473;28;20209;-85
2023/05/17 03:35:14;;;;;;;37.83;28.50;;;17.90;99.90;;;;;;5073780;28;20208;-83
2023/05/17 03:37:40;;;;;;;32.50;27.30;;;17.90;99.90;;;;;;5073521;28;20274;-85
2023/05/17 03:40:06;;;;;;;32.00;26.37;;;18.00;99.90;;;;;;5072171;28;20204;-83
2023/05/17 03:42:32;;;;;;;34.73;28.33;;;17.90;99.90;;;;;;5073597;28;20177;-83
2023/05/17 03:44:57;;;;;;;32.77;28.70;;;17.80;99.90;;;;;;5072751;28;20459;-83
2023/05/17 03:47:23;;;;;;;34.50;27.60;;;17.70;99.90;;;;;;5072206;28;20234;-85
2023/05/17 03:49:49;;;;;;;33.50;28.50;;;17.70;99.90;;;;;;5072167;28;20208;-85
2023/05/17 03:52:15;;;;;;;36.60;29.57;;;17.60;99.90;;;;;;5072058;28;20173;-84
2023/05/17 03:54:41;;;;;;;35.63;29.80;;;17.50;99.90;;;;;;5072141;28;20426;-84
2023/05/17 03:57:06;;;;;;;37.57;30.00;;;17.50;99.90;;;;;;5071861;28;20578;-83
2023/05/17 03:59:33;;;;;;;46.67;37.40;;;17.40;99.90;;;;;;5073420;28;20189;-84
2023/05/17 04:01:59;;;;;;;40.00;31.80;;;17.30;99.90;;;;;;5073222;28;20177;-84
2023/05/17 04:04:25;;;;;;;37.63;30.30;;;17.20;99.90;;;;;;5071942;28;20429;-83
2023/05/17 04:06:51;;;;;;;42.27;34.77;;;17.00;99.90;;;;;;5073150;28;20292;-85
2023/05/17 04:09:21;;;;;;;46.60;34.57;;;16.90;99.90;;;;;;5073167;28;20953;-84
2023/05/17 04:11:47;;;;;;;44.07;35.47;;;16.80;99.90;;;;;;5072745;28;20189;-81
2023/05/17 04:14:14;;;;;;;39.90;33.47;;;16.70;99.90;;;;;;5073336;28;20764;-84
2023/05/17 04:16:39;;;;;;;30.30;16.63;;;16.60;99.90;;;;;;5089718;28;20236;-82
2023/05/17 04:19:05;;;;;;;44.00;35.13;;;16.60;99.90;;;;;;5090926;28;20421;-85
2023/05/17 04:21:31;;;;;;;41.97;31.57;;;16.60;99.90;;;;;;5092000;28;20204;-82
2023/05/17 04:23:57;;;;;;;43.53;32.07;;;16.50;99.90;;;;;;5090884;28;20211;-83
2023/05/17 04:26:22;;;;;;;51.20;37.43;;;16.50;99.90;;;;;;5091794;28;20242;-85
2023/05/17 04:28:48;;;;;;;41.87;33.27;;;16.50;99.90;;;;;;5091902;28;20416;-84
2023/05/17 04:31:15;;;;;;;45.73;35.40;;;16.60;99.90;;;;;;5091677;28;20200;-83
2023/05/17 04:33:41;;;;;;;39.90;32.03;;;16.50;99.90;;;;;;5093184;28;20214;-83
2023/05/17 04:36:07;;;;;;;41.47;33.70;;;16.50;99.90;;;;;;5093326;28;20537;-83
2023/05/17 04:38:33;;;;;;;41.90;33.30;;;16.50;99.90;;;;;;5096894;28;20219;-82
2023/05/17 04:41:05;;;;;;;42.10;32.70;;;16.50;99.90;;;;;;5096579;28;20779;-82
2023/05/17 04:43:31;;;;;;;45.70;33.50;;;16.50;99.90;;;;;;5095188;28;20538;-85
2023/05/17 04:45:58;;;;;;;42.17;31.33;;;16.50;99.90;;;;;;5092161;28;20466;-81
2023/05/17 04:48:27;;;;;;;38.10;29.27;;;16.50;99.90;;;;;;5086000;28;20497;-84
2023/05/17 04:50:53;;;;;;;270.63;146.93;;;16.50;99.90;;;;;;5085092;28;20422;-83
2023/05/17 04:53:19;;;;;;;48.60;34.53;;;16.60;99.90;;;;;;5088308;28;20418;-82
2023/05/17 04:55:46;;;;;;;49.70;36.97;;;16.70;99.90;;;;;;5091673;28;20204;-84
2023/05/17 04:58:12;;;;;;;49.53;38.17;;;16.80;99.90;;;;;;5086326;28;20208;-85
2023/05/17 05:00:38;;;;;;;48.43;36.87;;;16.90;99.90;;;;;;5089049;28;20459;-85
2023/05/17 05:03:03;;;;;;;48.40;34.63;;;16.80;99.90;;;;;;5084552;28;20211;-83
2023/05/17 05:05:30;;;;;;;48.30;35.73;;;16.90;99.90;;;;;;5084976;28;20287;-83
2023/05/17 05:07:56;;;;;;;41.90;34.13;;;17.00;99.90;;;;;;5083396;28;20436;-83
2023/05/17 05:10:22;;;;;;;47.07;34.80;;;17.10;99.90;;;;;;5081944;28;20495;-83
2023/05/17 05:12:48;;;;;;;44.63;32.60;;;17.10;99.90;;;;;;5082294;28;20656;-83
2023/05/17 05:15:14;;;;;;;41.63;30.67;;;17.10;99.90;;;;;;5117959;27;20472;-83
2023/05/17 05:17:40;;;;;;;40.20;32.17;;;17.10;99.90;;;;;;5088199;28;20235;-82
2023/05/17 05:20:07;;;;;;;43.13;31.13;;;17.10;99.90;;;;;;5083759;28;20464;-84
2023/05/17 05:22:33;;;;;;;34.87;27.20;;;17.10;99.90;;;;;;5092805;28;20444;-84
2023/05/17 05:24:58;;;;;;;34.10;25.83;;;17.10;99.90;;;;;;5092832;28;20464;-83
2023/05/17 05:27:24;;;;;;;29.63;25.20;;;17.20;99.90;;;;;;5084063;28;20242;-83
2023/05/17 05:29:50;;;;;;;31.00;24.33;;;17.20;99.90;;;;;;5090595;28;20275;-83
2023/05/17 05:32:16;;;;;;;31.90;24.70;;;17.20;99.90;;;;;;5091624;28;20723;-83
2023/05/17 05:34:41;;;;;;;27.30;21.90;;;17.20;99.90;;;;;;5092581;28;20180;-83
2023/05/17 05:37:07;;;;;;;25.87;20.00;;;17.20;99.90;;;;;;5091313;28;20303;-83
2023/05/17 05:39:33;;;;;;;26.07;19.27;;;17.20;99.90;;;;;;5094836;28;20180;-84
2023/05/17 05:41:59;;;;;;;24.97;20.07;;;17.20;99.90;;;;;;5093520;28;20184;-83
2023/05/17 05:44:24;;;;;;;24.80;18.83;;;17.30;99.90;;;;;;5090234;28;20432;-83
2023/05/17 05:46:50;;;;;;;22.73;19.70;;;17.40;99.90;;;;;;5090893;28;20216;-82
2023/05/17 05:49:16;;;;;;;24.60;19.00;;;17.50;99.90;;;;;;5097431;28;20187;-83
2023/05/17 05:51:41;;;;;;;23.50;19.43;;;17.60;99.90;;;;;;5090078;28;20209;-83
2023/05/17 05:54:07;;;;;;;27.90;21.30;;;17.60;99.90;;;;;;5091413;28;20181;-83
2023/05/17 05:56:33;;;;;;;29.63;21.93;;;17.70;99.90;;;;;;5091296;28;20216;-82
2023/05/17 05:58:58;;;;;;;26.57;20.03;;;17.60;99.90;;;;;;5091574;28;20404;-82
2023/05/17 06:01:24;;;;;;;28.87;22.07;;;17.70;99.90;;;;;;5090703;28;20741;-82
2023/05/17 06:03:50;;;;;;;32.40;22.90;;;17.60;99.90;;;;;;5088829;28;20180;-84
2023/05/17 06:06:18;;;;;;;24.97;21.20;;;17.70;99.90;;;;;;5091793;28;20192;-82
2023/05/17 06:08:45;;;;;;;29.07;21.77;;;17.80;99.90;;;;;;5092088;28;20258;-83
2023/05/17 06:11:12;;;;;;;32.97;22.83;;;17.80;99.90;;;;;;5089023;28;20740;-83
2023/05/17 06:13:38;;;;;;;28.77;23.60;;;17.80;99.90;;;;;;5090442;28;20425;-83
2023/05/17 06:16:04;;;;;;;33.83;25.10;;;17.80;99.90;;;;;;5102489;28;20472;-84
2023/05/17 06:18:30;;;;;;;28.47;24.07;;;17.80;99.90;;;;;;5108518;27;20222;-84
2023/05/17 06:20:56;;;;;;;27.87;23.37;;;17.70;99.90;;;;;;5115707;27;20460;-83
2023/05/17 06:23:22;;;;;;;30.47;25.03;;;17.80;99.90;;;;;;5094235;28;20172;-84
2023/05/17 06:25:48;;;;;;;36.30;25.97;;;17.80;99.90;;;;;;5110720;28;20547;-82
2023/05/17 06:28:13;;;;;;;35.30;25.87;;;17.90;99.90;;;;;;5110832;28;20469;-82
2023/05/17 06:30:39;;;;;;;37.33;26.40;;;17.90;99.90;;;;;;5092928;28;20210;-82
2023/05/17 06:33:05;;;;;;;34.70;27.17;;;17.90;99.90;;;;;;5095900;28;20205;-83
2023/05/17 06:35:30;;;;;;;37.40;28.23;;;18.00;99.90;;;;;;5095900;28;20439;-84
2023/05/17 06:37:56;;;;;;;36.70;29.30;;;18.00;99.90;;;;;;5094260;28;20216;-84
2023/05/17 06:40:22;;;;;;;34.77;28.47;;;17.90;99.90;;;;;;5108251;28;20204;-84
2023/05/17 06:42:48;;;;;;;35.03;29.50;;;17.90;99.90;;;;;;5109571;28;20215;-84
2023/05/17 06:45:13;;;;;;;36.53;30.07;;;18.00;99.90;;;;;;5085573;27;20203;-84
2023/05/17 06:47:39;;;;;;;37.07;30.80;;;18.00;99.90;;;;;;5110306;28;20215;-82
2023/05/17 06:50:06;;;;;;;36.50;30.07;;;18.00;99.90;;;;;;5110204;28;20906;-82
2023/05/17 06:52:31;;;;;;;247.90;187.90;;;18.00;99.90;;;;;;5121192;27;20271;-84
2023/05/17 06:54:57;;;;;;;43.03;34.47;;;18.00;99.90;;;;;;5114131;27;20543;-82
2023/05/17 06:57:23;;;;;;;36.50;30.57;;;18.10;99.90;;;;;;5088141;27;20302;-82
2023/05/17 06:59:49;;;;;;;34.53;28.20;;;18.20;99.90;;;;;;5107984;28;20186;-82
2023/05/17 07:02:15;;;;;;;31.73;27.47;;;18.20;99.90;;;;;;5100931;28;20991;-83
2023/05/17 07:04:40;;;;;;;33.20;27.83;;;18.20;99.90;;;;;;5100768;28;20489;-84
2023/05/17 07:07:06;;;;;;;34.30;27.13;;;18.20;99.90;;;;;;5107684;28;20192;-83
2023/05/17 07:09:32;;;;;;;34.13;25.37;;;18.20;99.90;;;;;;5102951;28;20231;-84
2023/05/17 07:11:57;;;;;;;30.90;25.80;;;18.20;99.90;;;;;;5086978;28;20254;-83
2023/05/17 07:14:23;;;;;;;29.93;25.50;;;18.30;99.90;;;;;;5090841;27;20282;-83
2023/05/17 07:16:49;;;;;;;32.33;24.53;;;18.40;99.90;;;;;;5106767;27;20224;-84
2023/05/17 07:19:16;;;;;;;26.23;22.83;;;18.50;99.90;;;;;;5093179;28;20200;-81
2023/05/17 07:21:41;;;;;;;28.47;24.40;;;18.50;99.90;;;;;;5111132;28;20473;-81
2023/05/17 07:24:08;;;;;;;26.53;23.67;;;18.60;99.90;;;;;;5092558;28;20187;-81
2023/05/17 07:26:34;;;;;;;27.00;23.50;;;18.70;99.90;;;;;;5119903;27;20195;-81
2023/05/17 07:28:59;;;;;;;26.57;21.67;;;18.80;99.90;;;;;;5110804;27;20436;-82
2023/05/17 07:31:25;;;;;;;25.33;22.63;;;18.80;99.90;;;;;;5095610;28;20545;-82
2023/05/17 07:33:51;;;;;;;25.90;23.00;;;18.90;99.90;;;;;;5089056;28;20194;-81
2023/05/17 07:36:17;;;;;;;26.63;23.07;;;18.90;99.90;;;;;;5106214;28;20262;-83
2023/05/17 07:38:43;;;;;;;25.13;22.10;;;18.80;99.90;;;;;;5103253;28;20453;-83
2023/05/17 07:41:09;;;;;;;23.67;21.13;;;18.90;99.90;;;;;;5083965;28;20201;-83
2023/05/17 07:43:38;;;;;;;22.83;20.47;;;19.00;99.90;;;;;;5104169;28;20208;-81
2023/05/17 07:46:04;;;;;;;24.40;21.80;;;19.00;99.90;;;;;;5105793;28;20432;-84
2023/05/17 07:48:30;;;;;;;24.30;21.40;;;19.10;99.90;;;;;;5086532;28;20965;-82
2023/05/17 07:50:56;;;;;;;23.33;20.90;;;19.20;99.90;;;;;;5105175;28;20521;-83
2023/05/17 07:53:21;;;;;;;24.50;20.63;;;19.20;99.90;;;;;;5096504;28;20186;-81
2023/05/17 07:55:47;;;;;;;21.50;19.20;;;19.30;99.90;;;;;;5083925;28;20261;-81
2023/05/17 07:58:12;;;;;;;21.17;18.87;;;19.40;99.90;;;;;;5119500;27;20257;-81
2023/05/17 08:00:39;;;;;;;20.70;17.80;;;19.40;99.90;;;;;;5089313;28;20197;-82
2023/05/17 08:03:06;;;;;;;20.13;17.93;;;19.40;99.90;;;;;;5086045;28;20185;-81
2023/05/17 08:05:31;;;;;;;19.30;16.97;;;19.50;99.90;;;;;;5079814;28;20990;-83
2023/05/17 08:08:00;;;;;;;21.50;19.30;;;19.60;99.90;;;;;;5103958;28;20480;-85
2023/05/17 08:10:26;;;;;;;21.07;17.80;;;19.70;99.90;;;;;;5086898;28;20236;-85
2023/05/17 08:12:52;;;;;;;18.30;16.37;;;19.70;99.90;;;;;;5105078;28;20983;-82
2023/05/17 08:15:18;;;;;;;20.17;17.97;;;19.70;99.90;;;;;;5091185;28;20473;-82
2023/05/17 08:17:44;;;;;;;22.00;19.20;;;19.80;99.90;;;;;;5093414;28;20549;-82
2023/05/17 08:20:09;;;;;;;21.80;18.90;;;19.90;99.90;;;;;;5111554;27;20234;-86
2023/05/17 08:22:35;;;;;;;18.77;16.77;;;20.00;99.90;;;;;;5098549;28;20187;-83
2023/05/17 08:25:02;;;;;;;26.97;23.10;;;20.00;99.90;;;;;;5091012;28;20213;-82
2023/05/17 08:27:29;;;;;;;19.17;16.93;;;20.10;99.90;;;;;;5089850;27;20259;-85
2023/05/17 08:29:56;;;;;;;23.10;19.27;;;20.20;99.90;;;;;;5088852;28;20518;-83
2023/05/17 08:32:22;;;;;;;21.90;18.33;;;20.30;99.90;;;;;;5106526;27;20427;-85
2023/05/17 08:34:48;;;;;;;22.20;19.97;;;20.40;99.90;;;;;;5106074;27;20857;-82
2023/05/17 08:37:14;;;;;;;23.20;20.70;;;20.40;99.90;;;;;;5105007;27;20481;-84
2023/05/17 08:39:40;;;;;;;23.73;21.20;;;20.40;99.90;;;;;;5087017;28;20179;-81
2023/05/17 08:42:09;;;;;;;21.53;19.33;;;20.40;99.90;;;;;;5090385;28;21243;-83
2023/05/17 08:44:35;;;;;;;23.60;21.00;;;20.40;99.90;;;;;;5108637;27;20206;-85
2023/05/17 08:47:02;;;;;;;21.40;19.10;;;20.50;99.90;;;;;;5085209;28;20444;-82
2023/05/17 08:49:32;;;;;;;21.50;19.30;;;20.60;99.90;;;;;;5092901;28;20187;-82
2023/05/17 08:52:00;;;;;;;20.97;18.83;;;20.70;99.90;;;;;;5089002;28;20433;-85
2023/05/17 08:54:26;;;;;;;30.63;23.80;;;20.80;99.90;;;;;;5101028;28;20856;-80
2023/05/17 08:56:58;;;;;;;21.63;19.40;;;20.90;99.90;;;;;;5098948;27;20547;-85
2023/05/17 08:59:26;;;;;;;23.57;21.17;;;21.00;99.90;;;;;;5102370;27;20568;-85
2023/05/17 09:01:53;;;;;;;19.50;17.67;;;21.10;99.90;;;;;;5087850;28;20446;-80
2023/05/17 09:04:20;;;;;;;18.20;16.40;;;21.10;99.90;;;;;;5105633;28;20431;-85
2023/05/17 09:06:46;;;;;;;19.07;17.17;;;21.10;99.90;;;;;;5090786;28;20447;-86
2023/05/17 09:09:12;;;;;;;19.10;17.23;;;21.00;99.90;;;;;;5103672;28;20420;-84
2023/05/17 09:11:38;;;;;;;19.27;17.37;;;21.00;99.90;;;;;;5119823;27;20251;-80
2023/05/17 09:14:05;;;;;;;19.37;17.60;;;21.10;99.90;;;;;;5107440;27;20948;-81
2023/05/17 09:16:32;;;;;;;20.40;18.40;;;21.20;99.90;;;;;;5109323;27;20437;-81
2023/05/17 09:18:59;;;;;;;19.33;17.37;;;21.20;99.90;;;;;;5090328;28;20925;-85
2023/05/17 09:21:26;;;;;;;19.47;17.60;;;21.20;99.90;;;;;;5089962;28;20774;-81
2023/05/17 09:23:54;;;;;;;18.20;16.60;;;21.20;99.90;;;;;;5109151;28;20443;-82
2023/05/17 09:26:23;;;;;;;19.70;17.70;;;21.20;99.90;;;;;;5089554;28;20436;-84
2023/05/17 09:28:48;;;;;;;19.77;17.97;;;21.30;99.90;;;;;;5092222;28;20439;-85
2023/05/17 09:31:16;;;;;;;18.73;17.03;;;21.40;99.90;;;;;;5092923;28;20444;-85
2023/05/17 09:33:46;;;;;;;20.87;17.50;;;21.50;99.90;;;;;;5087322;28;20765;-84
2023/05/17 09:36:22;;;;;;;18.73;16.97;;;21.50;99.90;;;;;;5087332;28;20469;-80
2023/05/17 09:39:04;;;;;;;19.23;17.40;;;21.50;99.90;;;;;;5095018;28;20463;-84
2023/05/17 09:41:32;;;;;;;18.70;17.00;;;21.50;99.90;;;;;;5097566;28;20428;-84
2023/05/17 09:44:00;;;;;;;19.07;16.30;;;21.40;99.90;;;;;;5096313;28;20523;-81
2023/05/17 09:46:26;;;;;;;19.60;17.80;;;21.40;99.90;;;;;;5114369;28;20432;-81
2023/05/17 09:48:53;;;;;;;17.67;16.03;;;21.40;99.90;;;;;;5114958;27;20807;-81
2023/05/17 09:51:29;;;;;;;16.27;14.80;;;21.50;99.90;;;;;;5095450;28;20534;-85
2023/05/17 09:53:58;;;;;;;14.13;12.67;;;21.60;99.90;;;;;;5110633;28;20474;-80
2023/05/17 09:56:28;;;;;;;14.80;12.20;;;21.80;99.90;;;;;;5076942;28;20444;-83
2023/05/17 09:58:54;;;;;;;14.33;12.83;;;21.90;99.90;;;;;;5089645;28;20523;-84
2023/05/17 10:01:21;;;;;;;14.80;13.40;;;22.00;99.90;;;;;;5106866;27;20528;-85
2023/05/17 10:03:49;;;;;;;14.80;13.50;;;22.00;99.90;;;;;;5087961;28;20270;-84
2023/05/17 10:06:18;;;;;;;15.20;13.60;;;21.90;99.90;;;;;;5088222;28;20481;-84
2023/05/17 10:08:49;;;;;;;12.07;11.00;;;21.90;99.90;;;;;;5091502;28;20451;-80
2023/05/17 10:11:17;;;;;;;14.73;12.93;;;22.00;99.90;;;;;;5108112;28;20531;-80
2023/05/17 10:13:48;;;;;;;11.77;10.67;;;22.00;99.90;;;;;;5109960;28;20431;-80
2023/05/17 10:16:14;;;;;;;13.43;12.20;;;22.00;99.90;;;;;;5086748;28;20480;-85
2023/05/17 10:18:40;;;;;;;13.00;11.80;;;22.00;99.90;;;;;;5092851;28;20559;-84
2023/05/17 10:21:07;;;;;;;11.47;10.40;;;22.10;99.90;;;;;;5084509;28;20588;-84
2023/05/17 10:23:37;;;;;;;11.33;10.43;;;22.20;99.90;;;;;;5086263;28;20417;-85
2023/05/17 10:26:03;;;;;;;11.50;10.30;;;22.30;99.90;;;;;;5083984;28;20791;-85
2023/05/17 10:28:29;;;;;;;12.00;10.20;;;22.20;99.90;;;;;;5099396;28;20423;-81
2023/05/17 10:30:57;;;;;;;9.73;8.73;;;22.10;99.90;;;;;;5091921;28;20429;-80
2023/05/17 10:33:25;;;;;;;10.00;9.10;;;22.20;99.90;;;;;;5087555;28;20964;-81
2023/05/17 10:35:53;;;;;;;10.53;9.53;;;22.30;99.90;;;;;;5095093;28;20982;-81
2023/05/17 10:38:19;;;;;;;11.10;10.10;;;22.40;99.90;;;;;;5092784;28;20548;-80
2023/05/17 10:40:46;;;;;;;9.03;8.13;;;22.50;99.90;;;;;;5089205;28;20453;-81
2023/05/17 10:43:13;;;;;;;9.20;8.33;;;22.60;99.90;;;;;;5089554;28;20785;-85
2023/05/17 10:45:41;;;;;;;9.10;8.27;;;22.70;99.90;;;;;;5087631;28;20500;-82
2023/05/17 10:48:07;;;;;;;10.03;9.07;;;22.80;99.90;;;;;;5088977;28;20433;-85
2023/05/17 10:50:38;;;;;;;10.07;9.07;;;22.90;99.90;;;;;;5078443;28;20456;-81
2023/05/17 10:53:09;;;;;;;9.83;8.83;;;22.90;99.90;;;;;;5089099;28;20417;-85
2023/05/17 10:55:40;;;;;;;8.27;7.53;;;22.90;99.90;;;;;;5106406;27;20446;-84
2023/05/17 10:58:25;;;;;;;8.60;7.90;;;22.90;99.90;;;;;;5083818;28;20507;-85
2023/05/17 11:00:53;;;;;;;9.07;8.37;;;22.90;99.90;;;;;;5081542;28;20997;-85
2023/05/17 11:03:28;;;;;;;9.60;8.60;;;23.00;99.90;;;;;;5079465;28;20429;-84
2023/05/17 11:06:09;;;;;;;8.07;7.27;;;23.10;99.90;;;;;;5081557;28;20464;-83
2023/05/17 11:08:35;;;;;;;8.40;7.60;;;23.00;99.90;;;;;;5083582;28;20426;-84
2023/05/17 11:11:18;;;;;;;7.97;7.23;;;23.10;99.90;;;;;;5080628;28;20460;-84
2023/05/17 11:13:51;;;;;;;7.23;6.60;;;23.10;99.90;;;;;;5077353;28;20940;-81
2023/05/17 11:16:19;;;;;;;7.30;6.60;;;23.20;99.90;;;;;;5081804;28;20472;-81
2023/05/17 11:18:52;;;;;;;8.23;7.53;;;23.30;99.90;;;;;;5083009;28;20477;-86
2023/05/17 11:21:20;;;;;;;7.10;6.53;;;23.40;99.90;;;;;;5078232;28;20885;-85
2023/05/17 11:23:47;;;;;;;7.80;7.00;;;23.30;99.90;;;;;;5080321;28;20429;-85
2023/05/17 11:26:26;;;;;;;6.40;5.90;;;23.40;99.90;;;;;;5087065;28;20974;-80
2023/05/17 11:29:06;;;;;;;5.73;5.23;;;23.50;99.90;;;;;;5078376;28;20444;-82
2023/05/17 11:31:34;;;;;;;7.00;5.33;;;23.50;99.90;;;;;;5083658;28;20515;-85
2023/05/17 11:34:02;;;;;;;6.73;6.20;;;23.50;99.90;;;;;;5086800;28;20437;-84
2023/05/17 11:36:28;;;;;;;6.00;5.57;;;23.60;99.90;;;;;;5083116;28;20443;-81
2023/05/17 11:39:11;;;;;;;6.07;5.57;;;23.70;99.90;;;;;;5082055;28;20528;-81
2023/05/17 11:41:41;;;;;;;6.50;6.00;;;23.80;99.90;;;;;;5101987;28;20638;-80
2023/05/17 11:44:08;;;;;;;6.37;5.87;;;23.80;99.90;;;;;;5078994;28;20469;-82
2023/05/17 11:46:36;;;;;;;5.77;5.23;;;23.80;99.90;;;;;;5080720;28;20448;-86
2023/05/17 11:49:06;;;;;;;6.73;5.67;;;23.70;99.90;;;;;;5087681;28;20534;-82
2023/05/17 11:51:32;;;;;;;5.47;5.07;;;23.80;99.90;;;;;;5086604;28;20536;-81
2023/05/17 11:53:58;;;;;;;6.40;5.90;;;23.80;99.90;;;;;;5081359;28;21020;-85
2023/05/17 11:56:26;;;;;;;6.67;5.57;;;23.80;99.90;;;;;;5085101;28;20463;-84
2023/05/17 11:58:52;;;;;;;6.53;5.93;;;23.90;99.90;;;;;;5083971;28;20487;-84
2023/05/17 12:01:18;;;;;;;6.83;5.70;;;23.90;99.90;;;;;;5088290;28;20468;-85
2023/05/17 12:03:46;;;;;;;8.47;5.30;;;24.00;99.90;;;;;;5092779;28;20440;-81
2023/05/17 12:06:14;;;;;;;6.37;5.73;;;23.90;99.90;;;;;;5089165;28;20630;-86
2023/05/17 12:08:43;;;;;;;5.77;5.27;;;23.90;99.90;;;;;;5094900;28;20940;-85
2023/05/17 12:11:11;;;;;;;7.40;5.70;;;23.90;99.90;;;;;;5085492;28;20997;-86
2023/05/17 12:13:40;;;;;;;5.17;4.67;;;23.90;99.90;;;;;;5087169;28;20463;-81
2023/05/17 12:16:12;;;;;;;5.40;4.90;;;23.90;99.90;;;;;;5101385;27;20585;-81
2023/05/17 12:18:39;;;;;;;5.67;5.17;;;24.10;99.90;;;;;;5076487;28;20858;-81
2023/05/17 12:21:06;;;;;;;6.27;5.40;;;24.10;99.90;;;;;;5083292;28;20446;-84
2023/05/17 12:23:42;;;;;;;5.20;4.70;;;24.20;99.90;;;;;;5080595;28;20886;-81
2023/05/17 12:26:09;;;;;;;7.10;4.57;;;24.20;99.90;;;;;;5083172;28;20485;-85
2023/05/17 12:28:39;;;;;;;6.10;5.50;;;24.30;99.90;;;;;;5083350;28;20426;-80
2023/05/17 12:31:11;;;;;;;6.93;6.30;;;24.30;99.90;;;;;;5088520;28;20772;-84